Time;durP1;ratioP1;P1;durP2;ratioP2;P2;SDS_P1;SDS_P2;PMS_P1;PMS_P2;Temp;Humidity;BMP_temperature;BMP_pressure;BME280_temperature;BME280_humidity;BME280_pressure;Samples;Min_cycle;Max_cycle;Signal;HPM_P1;HPM_P2
2022/01/17 00:00:30;;;;;;;684.38;338.77;;;-1.40;99.90;;;;;;5074625;28;20040;-53
2022/01/17 00:02:59;;;;;;;721.70;349.10;;;-1.40;99.90;;;;;;5074472;28;20025;-54
2022/01/17 00:05:25;;;;;;;732.60;352.02;;;-1.40;99.90;;;;;;5074606;28;20032;-54
2022/01/17 00:07:52;;;;;;;727.60;353.45;;;-1.30;99.90;;;;;;5074404;28;20056;-54
2022/01/17 00:10:18;;;;;;;745.72;365.60;;;-1.30;99.90;;;;;;5074530;28;20025;-54
2022/01/17 00:12:51;;;;;;;726.72;357.73;;;-1.20;99.90;;;;;;5074290;28;20469;-54
2022/01/17 00:15:28;;;;;;;712.97;351.13;;;-1.20;99.90;;;;;;5074442;28;20032;-54
2022/01/17 00:20:35;;;;;;;692.33;340.08;;;-1.00;99.90;;;;;;5073987;28;20076;-54
2022/01/17 00:23:01;;;;;;;719.42;352.88;;;-1.00;99.90;;;;;;5074376;28;20024;-54
2022/01/17 00:25:27;;;;;;;705.97;351.55;;;-1.00;99.90;;;;;;5074140;28;20481;-54
2022/01/17 00:27:53;;;;;;;702.72;344.02;;;-1.00;99.90;;;;;;5074167;28;20024;-54
2022/01/17 00:30:20;;;;;;;685.58;335.33;;;-1.00;99.90;;;;;;5074233;28;20043;-54
2022/01/17 00:32:46;;;;;;;679.30;334.60;;;-1.00;99.90;;;;;;5072934;28;20037;-54
2022/01/17 00:35:13;;;;;;;671.80;325.50;;;-1.00;99.90;;;;;;5074102;28;20048;-53
2022/01/17 00:37:39;;;;;;;620.92;312.08;;;-1.00;99.90;;;;;;5074081;28;20020;-54
2022/01/17 00:40:06;;;;;;;669.83;332.20;;;-1.00;99.90;;;;;;5073958;28;20484;-54
2022/01/17 00:42:32;;;;;;;642.22;314.77;;;-1.00;99.90;;;;;;5074039;28;20027;-54
2022/01/17 00:45:01;;;;;;;748.72;341.95;;;-1.10;99.90;;;;;;5073921;28;20052;-54
2022/01/17 00:47:27;;;;;;;773.58;346.60;;;-1.10;99.90;;;;;;5074000;28;20068;-54
2022/01/17 00:49:53;;;;;;;769.95;352.20;;;-1.00;99.90;;;;;;5074027;28;20123;-54
2022/01/17 00:52:19;;;;;;;720.08;342.55;;;-1.00;99.90;;;;;;5073963;28;20033;-54
2022/01/17 00:54:45;;;;;;;719.35;347.15;;;-0.90;99.90;;;;;;5073959;28;20070;-54
2022/01/17 00:57:12;;;;;;;702.25;348.25;;;-0.90;99.90;;;;;;5073953;28;20028;-54
2022/01/17 00:59:38;;;;;;;1125.97;473.65;;;-0.90;99.90;;;;;;5075114;28;20039;-54
2022/01/17 01:02:04;;;;;;;1061.05;447.80;;;-0.90;99.90;;;;;;5077599;28;20090;-54
2022/01/17 01:04:30;;;;;;;876.20;388.73;;;-0.80;99.90;;;;;;5077669;28;20025;-54
2022/01/17 01:06:56;;;;;;;894.70;397.52;;;-0.70;99.90;;;;;;5077442;28;20371;-54
2022/01/17 01:09:23;;;;;;;942.30;420.27;;;-0.60;99.90;;;;;;5077800;28;20059;-54
2022/01/17 01:11:49;;;;;;;972.80;428.98;;;-0.70;99.90;;;;;;5077558;28;20020;-54
2022/01/17 01:14:15;;;;;;;1034.18;446.52;;;-0.70;99.90;;;;;;5077267;28;20036;-54
2022/01/17 01:16:42;;;;;;;998.40;428.33;;;-0.60;99.90;;;;;;5077357;28;20029;-54
2022/01/17 01:19:26;;;;;;;941.92;424.80;;;-0.60;99.90;;;;;;5059037;28;20049;-54
2022/01/17 01:27:44;;;;;;;1077.70;465.27;;;-0.50;99.90;;;;;;5077316;28;20265;-54
2022/01/17 01:30:13;;;;;;;1128.43;497.48;;;-0.50;99.90;;;;;;5077153;28;20410;-54
2022/01/17 01:32:53;;;;;;;965.20;448.85;;;-0.50;99.90;;;;;;5076989;28;20448;-54
2022/01/17 01:35:20;;;;;;;841.33;414.70;;;-0.40;99.90;;;;;;5076468;28;20051;-54
2022/01/17 01:37:48;;;;;;;817.15;394.00;;;-0.40;99.90;;;;;;5077170;28;20536;-54
2022/01/17 01:40:18;;;;;;;811.20;387.20;;;-0.50;99.90;;;;;;5076899;28;20493;-54
2022/01/17 01:42:45;;;;;;;754.90;364.67;;;-0.70;99.90;;;;;;5076856;28;20025;-54
2022/01/17 01:45:13;;;;;;;738.15;357.45;;;-0.70;99.90;;;;;;5076846;28;20032;-54
2022/01/17 01:47:40;;;;;;;681.78;323.27;;;-0.80;99.90;;;;;;5076792;28;20025;-54
2022/01/17 01:50:08;;;;;;;707.38;343.45;;;-0.80;99.90;;;;;;5076645;28;20055;-54
2022/01/17 01:52:35;;;;;;;716.13;345.48;;;-0.80;99.90;;;;;;5076771;28;20106;-54
2022/01/17 01:55:01;;;;;;;767.60;360.23;;;-0.80;99.90;;;;;;5076782;28;20470;-54
2022/01/17 01:57:27;;;;;;;683.00;327.50;;;-0.90;99.90;;;;;;5076666;28;20028;-54
2022/01/17 01:59:54;;;;;;;704.22;341.30;;;-0.90;99.90;;;;;;5076637;28;20467;-54
2022/01/17 02:02:20;;;;;;;693.83;343.55;;;-0.80;99.90;;;;;;5076479;28;20482;-54
2022/01/17 02:04:47;;;;;;;690.67;340.08;;;-0.70;99.90;;;;;;5076709;28;20046;-54
2022/01/17 02:07:15;;;;;;;660.90;322.92;;;-0.80;99.90;;;;;;5076925;28;20024;-54
2022/01/17 02:09:42;;;;;;;636.55;311.50;;;-0.90;99.90;;;;;;5076032;28;20084;-54
2022/01/17 02:12:08;;;;;;;700.67;340.08;;;-0.80;99.90;;;;;;5076029;28;20033;-54
2022/01/17 02:14:34;;;;;;;759.97;373.63;;;-0.70;99.90;;;;;;5076256;28;20116;-54
2022/01/17 02:17:05;;;;;;;737.00;364.67;;;-0.70;99.90;;;;;;5076206;28;20107;-54
2022/01/17 02:19:34;;;;;;;812.90;387.58;;;-0.70;99.90;;;;;;5075985;28;20185;-54
2022/01/17 02:22:01;;;;;;;847.55;398.23;;;-0.90;99.90;;;;;;5076093;28;20035;-54
2022/01/17 02:24:27;;;;;;;879.28;415.42;;;-0.90;99.90;;;;;;5076067;28;20103;-54
2022/01/17 02:26:53;;;;;;;700.05;341.23;;;-1.00;99.90;;;;;;5076072;28;20113;-54
2022/01/17 02:29:20;;;;;;;735.78;351.90;;;-1.20;99.90;;;;;;5076014;28;20099;-54
2022/01/17 02:31:49;;;;;;;744.60;360.75;;;-1.20;99.90;;;;;;5075898;28;20112;-54
2022/01/17 02:34:16;;;;;;;700.83;340.23;;;-1.30;99.90;;;;;;5075996;28;20050;-54
2022/01/17 02:36:43;;;;;;;760.47;367.35;;;-1.20;99.90;;;;;;5075823;28;20031;-54
2022/01/17 02:39:09;;;;;;;770.40;377.15;;;-1.30;99.90;;;;;;5075655;28;20021;-54
2022/01/17 02:41:39;;;;;;;757.60;368.33;;;-1.30;99.90;;;;;;5075661;28;20029;-54
2022/01/17 02:44:06;;;;;;;710.38;350.13;;;-1.40;99.90;;;;;;5075678;28;20497;-54
2022/01/17 02:46:32;;;;;;;691.72;346.00;;;-1.40;99.90;;;;;;5075605;28;20028;-54
2022/01/17 02:49:00;;;;;;;675.97;332.30;;;-1.50;99.90;;;;;;5075686;28;20385;-54
2022/01/17 02:51:27;;;;;;;718.58;349.40;;;-1.50;99.90;;;;;;5075648;28;20086;-53
2022/01/17 02:53:53;;;;;;;717.90;350.27;;;-1.60;99.90;;;;;;5075615;28;20098;-54
2022/01/17 02:56:20;;;;;;;675.50;335.65;;;-1.60;99.90;;;;;;5075529;28;20036;-53
2022/01/17 02:58:46;;;;;;;633.75;303.58;;;-1.60;99.90;;;;;;5075346;28;20029;-53
2022/01/17 03:01:24;;;;;;;652.35;322.70;;;-1.60;99.90;;;;;;5075350;28;20084;-53
2022/01/17 03:03:50;;;;;;;638.15;309.92;;;-1.60;99.90;;;;;;5075269;28;20507;-54
2022/01/17 03:06:17;;;;;;;628.70;304.50;;;-1.60;99.90;;;;;;5075283;28;20021;-54
2022/01/17 03:08:45;;;;;;;638.38;310.48;;;-1.70;99.90;;;;;;5075347;28;20026;-54
2022/01/17 03:11:15;;;;;;;600.88;293.65;;;-1.70;99.90;;;;;;5074994;28;20385;-54
2022/01/17 03:13:41;;;;;;;584.17;273.43;;;-1.70;99.90;;;;;;5057158;28;20021;-53
2022/01/17 03:16:13;;;;;;;575.38;272.05;;;-1.80;99.90;;;;;;5075070;28;20548;-54
2022/01/17 03:18:43;;;;;;;580.35;272.60;;;-1.90;99.90;;;;;;5075030;28;20028;-53
2022/01/17 03:21:11;;;;;;;578.00;273.80;;;-2.00;99.90;;;;;;5074916;28;20048;-54
2022/01/17 03:23:39;;;;;;;571.17;278.27;;;-2.00;99.90;;;;;;5073876;28;20082;-54
2022/01/17 03:26:06;;;;;;;574.20;273.63;;;-2.00;99.90;;;;;;5074911;28;20023;-53
2022/01/17 03:28:32;;;;;;;598.88;287.77;;;-1.90;99.90;;;;;;5074780;28;20039;-53
2022/01/17 03:30:59;;;;;;;600.60;285.45;;;-2.00;99.90;;;;;;5074896;28;20036;-53
2022/01/17 03:33:26;;;;;;;591.30;289.45;;;-1.90;99.90;;;;;;5074664;28;20029;-53
2022/01/17 03:35:53;;;;;;;628.00;302.45;;;-1.90;99.90;;;;;;5074877;28;20028;-54
2022/01/17 03:38:23;;;;;;;622.10;301.63;;;-2.00;99.90;;;;;;5074759;28;20111;-53
2022/01/17 03:40:51;;;;;;;631.90;311.17;;;-1.90;99.90;;;;;;5074961;28;20489;-53
2022/01/17 03:43:18;;;;;;;576.88;276.00;;;-1.80;99.90;;;;;;5074561;28;20024;-53
2022/01/17 03:45:45;;;;;;;591.75;283.98;;;-1.80;99.90;;;;;;5074718;28;20048;-54
2022/01/17 03:48:11;;;;;;;600.25;288.38;;;-1.90;99.90;;;;;;5074483;28;20374;-54
2022/01/17 03:50:37;;;;;;;594.97;284.92;;;-1.90;99.90;;;;;;5074775;28;20032;-54
2022/01/17 03:53:04;;;;;;;591.03;284.40;;;-1.80;99.90;;;;;;5074551;28;20033;-53
2022/01/17 03:55:32;;;;;;;583.38;280.55;;;-1.70;99.90;;;;;;5074634;28;20025;-53
2022/01/17 03:57:59;;;;;;;569.72;277.42;;;-1.60;99.90;;;;;;5074424;28;20029;-54
2022/01/17 04:00:29;;;;;;;601.63;300.88;;;-1.60;99.90;;;;;;5074379;28;20067;-54
2022/01/17 04:02:56;;;;;;;639.75;318.90;;;-1.60;99.90;;;;;;5074716;28;20056;-54
2022/01/17 04:05:22;;;;;;;675.33;339.38;;;-1.60;99.90;;;;;;5074420;28;20028;-54
2022/01/17 04:07:48;;;;;;;680.20;339.20;;;-1.50;99.90;;;;;;5074523;28;20050;-54
2022/01/17 04:10:15;;;;;;;656.33;323.15;;;-1.50;99.90;;;;;;5074281;28;20028;-54
2022/01/17 04:12:42;;;;;;;667.17;328.90;;;-1.40;99.90;;;;;;5074162;28;20493;-54
2022/01/17 04:15:10;;;;;;;653.40;330.63;;;-1.40;99.90;;;;;;5074402;28;20032;-54
2022/01/17 04:17:36;;;;;;;667.13;334.23;;;-1.30;99.90;;;;;;5074217;28;20101;-54
2022/01/17 04:20:08;;;;;;;662.95;334.08;;;-1.40;99.90;;;;;;5073980;28;20130;-54
2022/01/17 04:22:44;;;;;;;663.30;329.63;;;-1.30;99.90;;;;;;5074307;28;20035;-54
2022/01/17 04:25:11;;;;;;;647.35;324.35;;;-1.20;99.90;;;;;;5074102;28;20036;-54
2022/01/17 04:27:37;;;;;;;650.85;330.77;;;-1.10;99.90;;;;;;5074543;28;20070;-54
2022/01/17 04:30:05;;;;;;;660.25;332.70;;;-1.20;99.90;;;;;;5074200;28;20055;-53
2022/01/17 04:32:31;;;;;;;663.40;325.92;;;-1.10;99.90;;;;;;5074065;28;20024;-54
2022/01/17 04:34:57;;;;;;;646.00;320.70;;;-1.10;99.90;;;;;;5076119;28;20102;-54
2022/01/17 04:37:23;;;;;;;632.65;313.02;;;-1.10;99.90;;;;;;5077972;28;20411;-53
2022/01/17 04:39:49;;;;;;;635.53;314.02;;;-0.90;99.90;;;;;;5078011;28;20032;-54
2022/01/17 04:42:17;;;;;;;625.88;308.10;;;-0.90;99.90;;;;;;5078100;28;20031;-54
2022/01/17 04:47:33;;;;;;;706.58;342.48;;;-1.10;99.90;;;;;;5077956;28;20036;-54
2022/01/17 04:49:59;;;;;;;533.25;259.77;;;-1.00;99.90;;;;;;5077901;28;20393;-54
2022/01/17 04:52:26;;;;;;;674.08;331.77;;;-1.00;99.90;;;;;;5077894;28;20062;-54
2022/01/17 04:54:54;;;;;;;686.58;336.75;;;-0.90;99.90;;;;;;5077873;28;20562;-54
2022/01/17 04:57:21;;;;;;;673.47;337.80;;;-0.80;99.90;;;;;;5077850;28;20111;-54
2022/01/17 04:59:48;;;;;;;647.92;322.48;;;-0.80;99.90;;;;;;5077723;28;20120;-54
2022/01/17 05:02:16;;;;;;;663.50;334.42;;;-0.80;99.90;;;;;;5077787;28;20036;-54
2022/01/17 05:04:45;;;;;;;670.03;338.27;;;-0.80;99.90;;;;;;5077470;28;20107;-54
2022/01/17 05:07:14;;;;;;;683.53;337.25;;;-0.90;99.90;;;;;;5077589;28;20534;-54
2022/01/17 05:09:42;;;;;;;679.17;343.08;;;-0.80;99.90;;;;;;5077896;28;20139;-54
2022/01/17 05:12:10;;;;;;;666.95;336.55;;;-0.80;99.90;;;;;;5077452;28;20822;-54
2022/01/17 05:14:39;;;;;;;629.90;312.80;;;-0.90;99.90;;;;;;5077311;28;20112;-54
2022/01/17 05:17:22;;;;;;;607.53;301.02;;;-0.90;99.90;;;;;;5077351;28;20032;-54
2022/01/17 05:19:49;;;;;;;609.00;295.63;;;-0.90;99.90;;;;;;5059166;28;20047;-54
2022/01/17 05:22:19;;;;;;;617.80;303.63;;;-0.80;99.90;;;;;;5077286;28;20100;-54
2022/01/17 05:24:46;;;;;;;;;;;-0.90;99.90;;;;;;5077671;28;20028;-54
2022/01/17 05:27:12;;;;;;;641.97;316.20;;;-0.90;99.90;;;;;;5077090;28;19911;-54
2022/01/17 05:29:38;;;;;;;620.97;312.35;;;-0.90;99.90;;;;;;5077221;28;20032;-54
2022/01/17 05:32:05;;;;;;;632.92;322.45;;;-0.70;99.90;;;;;;5077209;28;20024;-54
2022/01/17 05:34:34;;;;;;;913.20;468.73;;;-0.70;99.90;;;;;;5077392;28;20364;-54
2022/01/17 05:37:01;;;;;;;706.85;360.73;;;-0.80;99.90;;;;;;5076978;28;20048;-54
2022/01/17 05:39:27;;;;;;;703.72;353.70;;;-0.80;99.90;;;;;;5076836;28;20031;-54
2022/01/17 05:41:53;;;;;;;674.00;348.30;;;-0.80;99.90;;;;;;5076917;28;20454;-54
2022/01/17 05:44:19;;;;;;;658.83;332.52;;;-0.90;99.90;;;;;;5076799;28;20058;-54
2022/01/17 05:46:45;;;;;;;623.22;308.40;;;-0.80;99.90;;;;;;5075725;28;20121;-54
2022/01/17 05:49:11;;;;;;;596.53;293.70;;;-0.80;99.90;;;;;;5076668;28;20021;-54
2022/01/17 05:51:37;;;;;;;614.33;307.83;;;-0.80;99.90;;;;;;5076733;28;20035;-54
2022/01/17 05:54:03;;;;;;;593.75;294.48;;;-0.70;99.90;;;;;;5076759;28;20032;-54
2022/01/17 05:56:29;;;;;;;581.03;294.00;;;-0.60;99.90;;;;;;5076554;28;20052;-54
2022/01/17 05:58:55;;;;;;;598.83;292.63;;;-0.60;99.90;;;;;;5076520;28;20028;-54
2022/01/17 06:01:22;;;;;;;655.95;319.40;;;-0.70;99.90;;;;;;5076701;28;20028;-54
2022/01/17 06:03:47;;;;;;;796.92;379.50;;;-0.70;99.90;;;;;;5076558;28;20029;-54
2022/01/17 06:06:13;;;;;;;615.55;296.52;;;-0.70;99.90;;;;;;5076569;28;20081;-54
2022/01/17 06:08:39;;;;;;;602.13;289.85;;;-0.80;99.90;;;;;;5076441;28;20025;-54
2022/01/17 06:11:05;;;;;;;562.30;274.15;;;-0.70;99.90;;;;;;5076187;28;20036;-54
2022/01/17 06:13:31;;;;;;;594.13;299.13;;;-0.60;99.90;;;;;;5076378;28;20096;-54
2022/01/17 06:15:57;;;;;;;599.55;306.60;;;-0.60;99.90;;;;;;5076673;28;20422;-54
2022/01/17 06:18:23;;;;;;;556.05;275.25;;;-0.50;99.90;;;;;;5075945;28;20043;-54
2022/01/17 06:20:49;;;;;;;542.83;265.42;;;-0.50;99.90;;;;;;5070853;28;20051;-54
2022/01/17 06:23:15;;;;;;;521.90;247.43;;;-0.70;99.90;;;;;;5062900;28;20031;-54
2022/01/17 06:25:41;;;;;;;505.13;235.43;;;-0.70;99.90;;;;;;5075266;28;20035;-54
2022/01/17 06:28:08;;;;;;;1019.88;401.42;;;-0.80;99.90;;;;;;5073990;28;20036;-54
2022/01/17 06:30:34;;;;;;;1072.55;416.95;;;-0.70;99.90;;;;;;5076203;28;20056;-54
2022/01/17 06:32:59;;;;;;;541.85;236.95;;;-0.60;99.90;;;;;;5074822;28;20086;-55
2022/01/17 06:35:29;;;;;;;528.85;248.07;;;-0.60;99.90;;;;;;5076332;28;20036;-55
2022/01/17 06:37:55;;;;;;;547.08;261.55;;;-0.60;99.90;;;;;;5069123;28;20078;-55
2022/01/17 06:40:21;;;;;;;536.63;258.33;;;-0.60;99.90;;;;;;5050047;28;20123;-55
2022/01/17 06:42:50;;;;;;;534.40;250.15;;;-0.60;99.90;;;;;;5073404;28;20021;-55
2022/01/17 06:45:18;;;;;;;614.38;282.17;;;-0.60;99.90;;;;;;5076384;28;20027;-55
2022/01/17 06:47:45;;;;;;;679.42;295.60;;;-0.50;99.90;;;;;;5076146;28;20451;-55
2022/01/17 06:50:11;;;;;;;656.97;298.55;;;-0.50;99.90;;;;;;5076490;28;20024;-55
2022/01/17 06:52:38;;;;;;;721.03;314.85;;;-0.50;99.90;;;;;;5076298;28;20408;-55
2022/01/17 06:55:08;;;;;;;629.83;291.23;;;-0.40;99.90;;;;;;5076016;28;20466;-55
2022/01/17 06:57:35;;;;;;;700.88;310.85;;;-0.40;99.90;;;;;;5076035;28;20028;-55
2022/01/17 07:00:01;;;;;;;833.30;361.75;;;-0.30;99.90;;;;;;5075836;28;20047;-55
2022/01/17 07:02:27;;;;;;;600.90;296.90;;;-0.30;99.90;;;;;;5075920;28;20032;-55
2022/01/17 07:04:54;;;;;;;564.13;278.63;;;-0.20;99.90;;;;;;5075500;28;20516;-55
2022/01/17 07:07:21;;;;;;;578.92;288.48;;;-0.10;99.90;;;;;;5075586;28;20028;-55
2022/01/17 07:09:47;;;;;;;561.95;279.60;;;0.10;99.90;;;;;;5075719;28;20543;-55
2022/01/17 07:12:13;;;;;;;557.28;275.52;;;0.30;99.90;;;;;;5075310;28;20021;-55
2022/01/17 07:14:42;;;;;;;579.85;281.25;;;0.30;99.90;;;;;;5072498;28;20060;-55
2022/01/17 07:17:09;;;;;;;599.22;291.65;;;0.20;99.90;;;;;;5069994;28;20111;-55
2022/01/17 07:19:36;;;;;;;601.78;291.10;;;0.20;99.90;;;;;;5064710;28;20083;-55
2022/01/17 07:22:05;;;;;;;600.42;299.30;;;0.20;99.90;;;;;;5073029;28;20017;-55
2022/01/17 07:24:33;;;;;;;607.08;294.73;;;0.20;99.90;;;;;;5074413;28;20024;-55
2022/01/17 07:27:00;;;;;;;533.50;261.25;;;0.00;99.90;;;;;;5070971;28;20037;-54
2022/01/17 07:29:26;;;;;;;548.20;270.05;;;-0.20;99.90;;;;;;5074635;28;20047;-54
2022/01/17 07:31:53;;;;;;;555.97;279.73;;;0.10;99.90;;;;;;5074589;28;20460;-55
2022/01/17 07:34:20;;;;;;;548.28;270.98;;;0.50;99.90;;;;;;5073740;28;20044;-56
2022/01/17 07:36:46;;;;;;;548.47;269.27;;;1.20;99.90;;;;;;5074705;28;20020;-55
2022/01/17 07:39:12;;;;;;;574.25;283.55;;;2.20;99.90;;;;;;5071738;28;20017;-55
2022/01/17 07:41:38;;;;;;;551.67;282.40;;;2.30;99.90;;;;;;5072685;28;20445;-55
2022/01/17 07:44:07;;;;;;;551.25;278.83;;;2.50;99.90;;;;;;5070281;28;20017;-55
2022/01/17 07:46:47;;;;;;;526.33;268.20;;;3.00;99.90;;;;;;5066816;28;20040;-56
2022/01/17 07:49:19;;;;;;;527.85;260.17;;;3.60;99.90;;;;;;5069727;28;20642;-56
2022/01/17 07:51:48;;;;;;;533.13;268.30;;;4.30;99.90;;;;;;5069195;28;20020;-56
2022/01/17 07:54:16;;;;;;;525.25;269.58;;;4.90;99.90;;;;;;5073305;28;20381;-56
2022/01/17 07:56:46;;;;;;;532.22;268.38;;;5.40;99.90;;;;;;5073621;28;20446;-57
2022/01/17 07:59:12;;;;;;;517.47;259.92;;;6.00;99.90;;;;;;5069484;28;20612;-57
2022/01/17 08:01:39;;;;;;;514.03;260.40;;;6.30;99.90;;;;;;5068538;28;20025;-56
2022/01/17 08:04:06;;;;;;;461.65;230.63;;;6.40;99.90;;;;;;5069902;28;20028;-56
2022/01/17 08:06:36;;;;;;;430.85;220.82;;;6.70;99.90;;;;;;5073222;28;20084;-57
2022/01/17 08:09:08;;;;;;;485.27;238.32;;;7.60;99.90;;;;;;5070619;28;20033;-56
2022/01/17 08:11:35;;;;;;;496.38;247.98;;;7.20;99.90;;;;;;5073605;28;20425;-57
2022/01/17 08:14:01;;;;;;;515.53;267.52;;;7.10;99.90;;;;;;5078471;28;20533;-57
2022/01/17 08:16:27;;;;;;;511.48;269.35;;;7.60;99.90;;;;;;5067165;28;20026;-57
2022/01/17 08:18:54;;;;;;;488.70;249.40;;;8.30;99.20;;;;;;5072682;28;20032;-57
2022/01/17 08:21:23;;;;;;;485.90;245.10;;;8.60;97.80;;;;;;5075080;28;20116;-57
2022/01/17 08:23:54;;;;;;;455.17;238.05;;;8.40;99.20;;;;;;5073250;28;20017;-57
2022/01/17 08:26:21;;;;;;;471.08;245.90;;;8.90;97.50;;;;;;5074467;28;20024;-57
2022/01/17 08:28:53;;;;;;;491.23;253.95;;;8.50;98.00;;;;;;5069197;28;20074;-57
2022/01/17 08:31:19;;;;;;;499.80;258.73;;;8.70;97.30;;;;;;5067412;28;20044;-57
2022/01/17 08:33:51;;;;;;;502.58;261.95;;;8.40;97.20;;;;;;5069235;28;20074;-56
2022/01/17 08:36:20;;;;;;;489.58;255.38;;;7.30;99.40;;;;;;5073150;28;20024;-56
2022/01/17 08:38:47;;;;;;;470.58;248.90;;;7.00;99.90;;;;;;5071827;28;20024;-57
2022/01/17 08:41:14;;;;;;;479.42;258.23;;;7.30;99.90;;;;;;5067038;28;20752;-57
2022/01/17 08:43:43;;;;;;;470.50;245.32;;;7.50;99.90;;;;;;5066582;28;20065;-57
2022/01/17 08:46:09;;;;;;;468.73;252.02;;;8.00;99.90;;;;;;5072819;28;20037;-57
2022/01/17 08:48:35;;;;;;;475.85;255.52;;;8.60;99.20;;;;;;5073017;28;20056;-57
2022/01/17 08:51:01;;;;;;;482.05;253.65;;;8.70;98.10;;;;;;5070143;28;20028;-57
2022/01/17 08:53:28;;;;;;;460.67;247.75;;;9.70;97.50;;;;;;5056245;28;20067;-57
2022/01/17 08:55:54;;;;;;;460.98;242.40;;;10.10;94.90;;;;;;5062514;28;20035;-57
2022/01/17 08:58:25;;;;;;;457.58;251.15;;;10.70;93.70;;;;;;5070911;28;20103;-57
2022/01/17 09:00:52;;;;;;;464.38;249.48;;;10.10;93.30;;;;;;5071502;28;20033;-57
2022/01/17 09:03:19;;;;;;;434.25;232.95;;;10.20;94.50;;;;;;5070443;28;20020;-57
2022/01/17 09:05:45;;;;;;;438.63;230.20;;;10.40;94.50;;;;;;5072855;28;20029;-57
2022/01/17 09:08:18;;;;;;;434.40;236.55;;;10.70;93.10;;;;;;5072410;28;20422;-57
2022/01/17 09:11:00;;;;;;;438.27;234.10;;;10.20;94.30;;;;;;5063619;28;20029;-57
2022/01/17 09:16:51;;;;;;;428.40;229.23;;;10.10;93.00;;;;;;5071085;28;20040;-58
2022/01/17 09:19:18;;;;;;;426.67;227.40;;;10.50;94.50;;;;;;5070066;28;20078;-58
2022/01/17 09:21:44;;;;;;;421.05;229.60;;;11.20;93.60;;;;;;5074074;28;20075;-58
2022/01/17 09:24:11;;;;;;;395.30;214.52;;;11.50;91.20;;;;;;5074755;28;20032;-59
2022/01/17 09:26:47;;;;;;;376.38;205.75;;;12.30;90.00;;;;;;5077419;28;20040;-58
2022/01/17 09:29:13;;;;;;;332.65;175.13;;;11.90;89.10;;;;;;5076315;28;20024;-58
2022/01/17 09:31:45;;;;;;;338.40;181.05;;;11.70;84.50;;;;;;5076653;28;20068;-58
2022/01/17 09:34:12;;;;;;;346.70;180.52;;;11.80;88.40;;;;;;5075490;28;20070;-58
2022/01/17 09:36:39;;;;;;;321.77;167.52;;;12.60;85.60;;;;;;5071925;28;20098;-58
2022/01/17 09:39:07;;;;;;;297.75;159.35;;;12.30;79.30;;;;;;5074291;28;20541;-58
2022/01/17 09:41:44;;;;;;;287.80;151.35;;;12.20;84.30;;;;;;5077134;28;20391;-58
2022/01/17 09:44:10;;;;;;;323.92;165.57;;;13.10;75.10;;;;;;5076209;28;20377;-58
2022/01/17 09:46:48;;;;;;;308.35;162.95;;;13.20;75.50;;;;;;5075365;28;20028;-58
2022/01/17 09:49:30;;;;;;;312.88;167.02;;;13.90;68.50;;;;;;5067691;28;20095;-58
2022/01/17 09:52:08;;;;;;;310.67;165.35;;;13.90;66.60;;;;;;5057585;28;20028;-58
2022/01/17 09:54:39;;;;;;;299.20;162.45;;;14.40;64.00;;;;;;5064377;28;20024;-58
2022/01/17 09:57:07;;;;;;;308.08;161.98;;;13.80;64.10;;;;;;5076076;28;20074;-58
2022/01/17 09:59:38;;;;;;;338.33;170.93;;;13.40;70.00;;;;;;5063678;28;20104;-58
2022/01/17 10:02:05;;;;;;;328.45;162.52;;;13.70;69.50;;;;;;5070809;28;20029;-58
2022/01/17 10:04:32;;;;;;;315.08;165.35;;;13.50;70.80;;;;;;5058344;28;20040;-58
2022/01/17 10:07:01;;;;;;;324.13;165.98;;;13.40;68.50;;;;;;5067622;28;20027;-58
2022/01/17 10:09:28;;;;;;;319.75;159.10;;;13.90;70.50;;;;;;5072686;28;20102;-58
2022/01/17 10:12:10;;;;;;;315.73;158.15;;;14.30;64.90;;;;;;5071738;28;20029;-58
2022/01/17 10:14:56;;;;;;;329.95;171.18;;;14.20;59.70;;;;;;5075341;28;20021;-58
2022/01/17 10:17:23;;;;;;;337.02;182.90;;;14.90;61.50;;;;;;5074970;28;20028;-58
2022/01/17 10:36:51;;;;;;;301.38;166.75;;;15.70;54.00;;;;;;5068464;28;20044;-58
2022/01/17 10:39:17;;;;;;;309.50;163.57;;;16.30;50.80;;;;;;5072734;28;20028;-58
2022/01/17 10:41:43;;;;;;;296.00;163.85;;;16.20;49.20;;;;;;5060019;28;20397;-58
2022/01/17 10:44:09;;;;;;;298.70;167.05;;;16.30;50.50;;;;;;5057545;28;20063;-58
2022/01/17 10:46:35;;;;;;;309.08;164.77;;;16.50;49.70;;;;;;5071257;28;20114;-59
2022/01/17 10:49:03;;;;;;;305.83;167.73;;;16.20;49.20;;;;;;5075960;28;20024;-58
2022/01/17 10:51:32;;;;;;;313.00;170.70;;;16.70;49.20;;;;;;5076085;28;20032;-57
2022/01/17 10:54:10;;;;;;;305.98;168.93;;;16.20;49.40;;;;;;5073009;28;20020;-58
2022/01/17 10:56:48;;;;;;;319.38;167.05;;;16.00;49.40;;;;;;5072683;28;20087;-57
2022/01/17 10:59:31;;;;;;;311.73;171.23;;;16.60;49.30;;;;;;5075394;28;20454;-58
2022/01/17 11:01:58;;;;;;;315.60;170.70;;;16.70;48.80;;;;;;5083576;28;20056;-58
2022/01/17 11:04:36;;;;;;;315.92;174.10;;;17.00;49.00;;;;;;5075395;28;20441;-58
2022/01/17 11:07:07;;;;;;;314.23;172.77;;;17.40;47.40;;;;;;5075150;28;20562;-58
2022/01/17 11:09:46;;;;;;;313.65;175.93;;;17.60;45.10;;;;;;5074483;28;20025;-58
2022/01/17 11:12:15;;;;;;;301.95;167.32;;;17.50;44.90;;;;;;5067047;28;20027;-58
2022/01/17 11:14:43;;;;;;;293.80;165.27;;;17.40;44.90;;;;;;5073947;28;20039;-58
2022/01/17 11:17:25;;;;;;;290.42;162.75;;;17.30;44.20;;;;;;5070484;28;20090;-58
2022/01/17 11:20:05;;;;;;;268.45;140.05;;;17.40;45.40;;;;;;5072423;28;20098;-59
2022/01/17 11:22:43;;;;;;;251.35;139.73;;;16.70;44.10;;;;;;5069532;28;20378;-57
2022/01/17 11:25:17;;;;;;;266.17;142.52;;;16.70;45.90;;;;;;5056848;28;20037;-58
2022/01/17 11:27:44;;;;;;;284.08;142.52;;;17.30;44.50;;;;;;5056966;28;20036;-58
2022/01/17 11:30:11;;;;;;;202.18;111.78;;;17.10;44.40;;;;;;5073218;28;20040;-57
2022/01/17 11:32:38;;;;;;;208.13;110.72;;;17.30;42.40;;;;;;5052934;28;20043;-58
2022/01/17 11:35:06;;;;;;;145.77;79.15;;;17.50;41.60;;;;;;5075026;28;20060;-57
2022/01/17 11:37:34;;;;;;;179.40;88.18;;;17.70;38.70;;;;;;5068682;28;20028;-58
2022/01/17 11:40:01;;;;;;;141.50;72.88;;;17.80;39.80;;;;;;5054705;28;20474;-58
2022/01/17 11:42:28;;;;;;;159.50;77.18;;;18.00;39.30;;;;;;5052725;28;20029;-58
2022/01/17 11:44:54;;;;;;;127.65;65.78;;;17.80;37.40;;;;;;5053305;28;20131;-58
2022/01/17 11:47:54;;;;;;;122.57;63.13;;;18.10;38.40;;;;;;5055427;28;20024;-57
2022/01/17 11:50:35;;;;;;;125.27;62.40;;;18.30;37.00;;;;;;5074395;28;20074;-58
2022/01/17 11:53:10;;;;;;;95.38;55.22;;;17.70;38.20;;;;;;5074198;28;20330;-58
2022/01/17 11:55:44;;;;;;;72.43;42.50;;;17.80;37.80;;;;;;5073698;28;20378;-58
2022/01/17 11:58:30;;;;;;;94.82;43.67;;;18.30;36.50;;;;;;5056758;28;20036;-58
2022/01/17 12:00:59;;;;;;;88.82;44.30;;;18.30;36.00;;;;;;5071896;28;20108;-58
2022/01/17 12:03:27;;;;;;;73.38;38.45;;;18.40;35.70;;;;;;5069362;28;20766;-57
2022/01/17 12:06:02;;;;;;;81.55;42.03;;;19.20;34.70;;;;;;5072725;28;20107;-58
2022/01/17 12:08:29;;;;;;;70.47;39.10;;;19.00;34.30;;;;;;5070829;28;20047;-58
2022/01/17 12:11:00;;;;;;;80.40;47.15;;;18.90;34.00;;;;;;5072585;28;20028;-58
2022/01/17 12:13:39;;;;;;;87.45;46.25;;;19.30;35.00;;;;;;5072857;28;20028;-57
2022/01/17 12:16:15;;;;;;;81.85;45.58;;;18.80;34.00;;;;;;5073914;28;20024;-58
2022/01/17 12:19:07;;;;;;;86.75;46.55;;;18.50;34.90;;;;;;5069496;28;20108;-58
2022/01/17 12:21:39;;;;;;;109.82;51.13;;;18.20;36.00;;;;;;5044846;28;20025;-58
2022/01/17 12:24:17;;;;;;;70.75;39.22;;;18.40;36.10;;;;;;5053056;28;20024;-58
2022/01/17 12:27:04;;;;;;;65.68;34.08;;;18.10;35.10;;;;;;5051425;28;20037;-57
2022/01/17 12:29:55;;;;;;;73.22;34.67;;;18.00;34.90;;;;;;5047812;28;20033;-57
2022/01/17 12:32:24;;;;;;;79.05;42.60;;;18.10;35.40;;;;;;5054547;28;20035;-57
2022/01/17 12:35:08;;;;;;;97.00;45.25;;;18.20;35.00;;;;;;5053785;28;20049;-58
2022/01/17 12:37:47;;;;;;;80.45;41.75;;;18.30;36.00;;;;;;5050995;28;20475;-57
2022/01/17 12:40:29;;;;;;;82.78;43.22;;;18.60;35.00;;;;;;5044929;28;20088;-57
2022/01/17 12:43:14;;;;;;;88.43;46.80;;;19.10;34.80;;;;;;5050572;28;20035;-58
2022/01/17 12:45:50;;;;;;;98.85;52.60;;;18.80;33.90;;;;;;5053034;28;20025;-58
2022/01/17 12:48:20;;;;;;;108.03;50.00;;;18.10;35.70;;;;;;5064787;28;20020;-58
2022/01/17 12:50:49;;;;;;;89.78;43.92;;;18.70;35.80;;;;;;5054367;28;20051;-58